ワルシャワ の空港の天気 - METARとTAF

ワルシャワ・フレデリック・ショパン空港 ( EPWA / WAW ) - ポーランド ワルシャワ
飛行場実況気象(Metar)
観測時間04/19 13:30 CEST (04/19 11:30 UTC)
風向・風速北 9m/s
視程10km以上
天気現象
なし
気温20℃
湿度46%
気圧1027hPa
METAREPWA 191130Z 35017KT CAVOK 20/08 Q1027 NOSIG
過去の天気等 Google飛行場航空写真 Wunderground天気予報

過去48時間のMETAR

飛行場予報(TAF)
発表時間: 4/19 13:30 CEST (4/19 11:30 UTC)
予報対象時間: 19日14時 CEST ~ 20日14時 CEST
風向・風速北北西 6m/s
視程10km以上
なし
19日14時 CEST ~ 19日18時 CEST に 確率 40% で一時的に
風向・風速北 8m/s 瞬間風速 13m/s
20日2時 CEST ~ 20日5時 CEST に徐々に
風向・風速不定 1m/s
TAF EPWA 191130Z 1912/2012 33012KT CAVOK
PROB40 TEMPO 1912/1916 35015G25KT
BECMG 2000/2003 VRB02KT